createdAt,value
2022-07-26T00:00:08.325Z,20.08
2022-07-26T00:01:08.432Z,20.05
2022-07-26T00:02:08.347Z,20.00
2022-07-26T00:03:08.294Z,20.00
2022-07-26T00:04:08.276Z,19.98
2022-07-26T00:05:08.281Z,19.94
2022-07-26T00:06:08.255Z,19.93
2022-07-26T00:07:08.272Z,19.91
2022-07-26T00:08:08.227Z,19.91
2022-07-26T00:09:08.539Z,19.90
2022-07-26T00:10:08.237Z,20.00
2022-07-26T00:11:08.194Z,20.08
2022-07-26T00:12:08.188Z,20.13
2022-07-26T00:13:08.167Z,20.20
2022-07-26T00:14:08.192Z,20.16
2022-07-26T00:15:08.145Z,20.12
2022-07-26T00:16:08.267Z,20.12
2022-07-26T00:17:08.129Z,20.09
2022-07-26T00:18:08.185Z,20.08
2022-07-26T00:19:08.328Z,20.05
2022-07-26T00:20:08.098Z,20.03
2022-07-26T00:21:08.128Z,20.05
2022-07-26T00:22:08.069Z,20.03
2022-07-26T00:23:08.071Z,20.02
2022-07-26T00:24:08.061Z,19.98
2022-07-26T00:25:08.033Z,19.97
2022-07-26T00:26:08.010Z,19.97
2022-07-26T00:27:08.059Z,19.90
2022-07-26T00:28:08.008Z,19.83
2022-07-26T00:29:08.204Z,19.72
2022-07-26T00:30:07.977Z,19.66
2022-07-26T00:31:08.020Z,19.63
2022-07-26T00:32:07.983Z,19.65
2022-07-26T00:33:07.955Z,19.63
2022-07-26T00:34:07.944Z,19.61
2022-07-26T00:35:07.930Z,19.61
2022-07-26T00:36:07.912Z,19.60
2022-07-26T00:37:07.925Z,19.57
2022-07-26T00:38:07.916Z,19.57
2022-07-26T00:39:08.178Z,19.53
2022-07-26T00:40:07.861Z,19.50
2022-07-26T00:41:07.895Z,19.43
2022-07-26T00:42:07.876Z,19.43
2022-07-26T00:43:07.871Z,19.43
2022-07-26T00:44:07.824Z,19.46
2022-07-26T00:45:07.795Z,19.46
2022-07-26T00:46:07.867Z,19.48
2022-07-26T00:47:07.781Z,19.48
2022-07-26T00:48:07.767Z,19.48
2022-07-26T00:49:08.051Z,19.50
2022-07-26T00:50:07.786Z,19.51
2022-07-26T00:51:07.736Z,19.53
2022-07-26T00:52:07.736Z,19.54
2022-07-26T00:53:07.705Z,19.54
2022-07-26T00:54:07.767Z,19.55
2022-07-26T00:55:07.699Z,19.55
2022-07-26T00:56:07.668Z,19.55
2022-07-26T00:57:07.666Z,19.57
2022-07-26T00:58:07.655Z,19.57
2022-07-26T00:59:07.899Z,19.58
2022-07-26T01:00:07.649Z,19.57
2022-07-26T01:01:07.731Z,19.55
2022-07-26T01:02:07.692Z,19.58
2022-07-26T01:03:07.591Z,19.58
2022-07-26T01:04:07.816Z,19.60
2022-07-26T01:05:07.618Z,19.63
2022-07-26T01:06:07.561Z,19.65
2022-07-26T01:07:14.974Z,19.66
2022-07-26T01:08:08.544Z,19.68
2022-07-26T01:09:07.537Z,19.69
2022-07-26T01:10:07.522Z,19.69
2022-07-26T01:11:07.532Z,19.72
2022-07-26T01:12:07.502Z,19.69
2022-07-26T01:13:07.483Z,19.66
2022-07-26T01:14:07.698Z,19.65
2022-07-26T01:15:07.462Z,19.60
2022-07-26T01:16:07.479Z,19.58
2022-07-26T01:17:07.475Z,19.55
2022-07-26T01:18:07.422Z,19.54
2022-07-26T01:19:07.415Z,19.50
2022-07-26T01:20:07.403Z,19.48
2022-07-26T01:21:09.582Z,19.46
2022-07-26T01:22:13.913Z,19.43
2022-07-26T01:23:08.376Z,19.35
2022-07-26T01:24:07.745Z,19.33
2022-07-26T01:25:07.347Z,19.29
2022-07-26T01:26:08.165Z,19.29
2022-07-26T01:27:07.315Z,19.28
2022-07-26T01:28:07.338Z,19.24
2022-07-26T01:29:07.287Z,19.24
2022-07-26T01:30:07.287Z,19.23
2022-07-26T01:31:07.367Z,19.21
2022-07-26T01:32:07.266Z,19.18
2022-07-26T01:33:07.251Z,19.18
2022-07-26T01:34:07.515Z,19.20
2022-07-26T01:35:07.231Z,19.23
2022-07-26T01:36:07.226Z,19.21
2022-07-26T01:37:07.231Z,19.23
2022-07-26T01:38:07.188Z,19.24
2022-07-26T01:39:07.181Z,19.25
2022-07-26T01:40:07.279Z,19.28
2022-07-26T01:41:07.158Z,19.29
2022-07-26T01:42:07.156Z,19.33
2022-07-26T01:43:07.130Z,19.35
2022-07-26T01:44:07.717Z,19.36
2022-07-26T01:45:07.150Z,19.40
2022-07-26T01:46:07.163Z,19.42
2022-07-26T01:47:07.092Z,19.43
2022-07-26T01:48:07.093Z,19.42
2022-07-26T01:49:07.198Z,19.43
2022-07-26T01:50:07.082Z,19.46
2022-07-26T01:51:07.061Z,19.47
2022-07-26T01:52:07.034Z,19.46
2022-07-26T01:53:07.033Z,19.46
2022-07-26T01:54:07.147Z,19.47
2022-07-26T01:55:07.013Z,19.48
2022-07-26T01:56:07.030Z,19.47
2022-07-26T01:57:06.986Z,19.47
2022-07-26T01:58:06.969Z,19.55
2022-07-26T01:59:06.953Z,19.58
2022-07-26T02:00:06.934Z,19.58
2022-07-26T02:01:06.923Z,19.55
2022-07-26T02:02:07.058Z,19.55
2022-07-26T02:03:06.980Z,19.54
2022-07-26T02:04:07.108Z,19.53
2022-07-26T02:05:06.895Z,19.53
2022-07-26T02:06:06.869Z,19.51
2022-07-26T02:07:12.806Z,19.51
2022-07-26T02:08:07.909Z,19.48
2022-07-26T02:09:07.741Z,19.47
2022-07-26T02:10:07.839Z,19.47
2022-07-26T02:11:06.836Z,19.46
2022-07-26T02:12:06.800Z,19.46
2022-07-26T02:13:06.786Z,19.43
2022-07-26T02:14:06.972Z,19.46
2022-07-26T02:15:06.771Z,19.46
2022-07-26T02:16:06.819Z,19.42
2022-07-26T02:17:06.806Z,19.40
2022-07-26T02:18:06.749Z,19.39
2022-07-26T02:19:06.727Z,19.36
2022-07-26T02:20:06.733Z,19.33
2022-07-26T02:21:06.717Z,19.33
2022-07-26T02:22:06.701Z,19.32
2022-07-26T02:23:06.680Z,19.31
2022-07-26T02:24:06.994Z,19.31
2022-07-26T02:25:06.709Z,19.29
2022-07-26T02:26:06.639Z,19.24
2022-07-26T02:27:06.629Z,19.23
2022-07-26T02:28:06.620Z,19.20
2022-07-26T02:29:06.632Z,19.18
2022-07-26T02:30:06.590Z,19.13
2022-07-26T02:31:06.657Z,19.08
2022-07-26T02:32:06.580Z,19.06
2022-07-26T02:33:06.572Z,19.02
2022-07-26T02:34:06.749Z,18.99
2022-07-26T02:35:06.541Z,18.97
2022-07-26T02:36:06.558Z,18.92
2022-07-26T02:37:06.522Z,18.91
2022-07-26T02:38:06.563Z,18.87
2022-07-26T02:39:06.502Z,18.90
2022-07-26T02:40:06.495Z,18.87
2022-07-26T02:41:06.484Z,18.90
2022-07-26T02:42:06.484Z,18.91
2022-07-26T02:43:06.475Z,18.90
2022-07-26T02:44:06.830Z,18.90
2022-07-26T02:45:06.447Z,18.86
2022-07-26T02:46:06.484Z,18.84
2022-07-26T02:47:06.426Z,18.82
2022-07-26T02:48:06.439Z,18.82
2022-07-26T02:49:06.493Z,18.80
2022-07-26T02:50:06.373Z,18.79
2022-07-26T02:51:06.409Z,18.77
2022-07-26T02:52:06.395Z,18.76
2022-07-26T02:53:06.349Z,18.74
2022-07-26T02:54:06.688Z,18.73
2022-07-26T02:55:06.318Z,18.72
2022-07-26T02:56:06.334Z,18.70
2022-07-26T02:57:06.345Z,18.72
2022-07-26T02:58:06.326Z,18.72
2022-07-26T02:59:06.267Z,18.68
2022-07-26T03:00:06.262Z,18.68
2022-07-26T03:01:06.274Z,18.68
2022-07-26T03:02:06.320Z,18.64
2022-07-26T03:03:06.278Z,18.62
2022-07-26T03:04:06.433Z,18.58
2022-07-26T03:05:06.230Z,18.57
2022-07-26T03:06:06.227Z,18.54
2022-07-26T03:07:06.225Z,18.52
2022-07-26T03:08:06.187Z,18.50
2022-07-26T03:09:06.162Z,18.47
2022-07-26T03:10:06.283Z,18.46
2022-07-26T03:11:10.354Z,18.43
2022-07-26T03:12:07.130Z,18.40
2022-07-26T03:13:06.122Z,18.42
2022-07-26T03:14:06.482Z,18.40
2022-07-26T03:15:06.124Z,18.39
2022-07-26T03:16:06.140Z,18.39
2022-07-26T03:17:06.083Z,18.39
2022-07-26T03:18:06.075Z,18.36
2022-07-26T03:19:06.043Z,18.34
2022-07-26T03:20:06.032Z,18.37
2022-07-26T03:21:06.055Z,18.37
2022-07-26T03:22:06.036Z,18.37
2022-07-26T03:23:05.993Z,18.37
2022-07-26T03:24:06.376Z,18.34
2022-07-26T03:25:06.000Z,18.39
2022-07-26T03:26:05.987Z,18.40
2022-07-26T03:27:05.973Z,18.44
2022-07-26T03:28:05.944Z,18.46
2022-07-26T03:29:05.952Z,18.52
2022-07-26T03:30:05.926Z,18.52
2022-07-26T03:31:05.965Z,18.50
2022-07-26T03:32:05.925Z,18.49
2022-07-26T03:33:05.895Z,18.46
2022-07-26T03:34:06.206Z,18.44
2022-07-26T03:35:05.879Z,18.40
2022-07-26T03:36:05.894Z,18.34
2022-07-26T03:37:06.907Z,18.28
2022-07-26T03:38:05.837Z,18.29
2022-07-26T03:39:05.856Z,18.36
2022-07-26T03:40:05.812Z,18.39
2022-07-26T03:41:05.800Z,18.42
2022-07-26T03:42:05.789Z,18.44
2022-07-26T03:43:05.810Z,18.42
2022-07-26T03:44:06.146Z,18.42
2022-07-26T03:45:05.777Z,18.39
2022-07-26T03:46:05.802Z,18.34
2022-07-26T03:47:05.719Z,18.34
2022-07-26T03:48:05.713Z,18.34
2022-07-26T03:49:05.794Z,18.34
2022-07-26T03:50:05.728Z,18.33
2022-07-26T03:51:05.696Z,18.34
2022-07-26T03:52:05.680Z,18.31
2022-07-26T03:53:05.668Z,18.27
2022-07-26T03:54:05.916Z,18.25
2022-07-26T03:55:05.634Z,18.17
2022-07-26T03:56:05.659Z,18.10
2022-07-26T03:57:05.616Z,18.07
2022-07-26T03:58:05.612Z,18.04
2022-07-26T03:59:05.604Z,18.02
2022-07-26T04:00:05.613Z,17.99
2022-07-26T04:01:05.675Z,17.97
2022-07-26T04:02:05.665Z,17.99
2022-07-26T04:03:05.592Z,17.99
2022-07-26T04:04:05.953Z,17.99
2022-07-26T04:05:05.532Z,17.95
2022-07-26T04:06:05.521Z,17.91
2022-07-26T04:07:05.566Z,17.91
2022-07-26T04:08:05.519Z,17.91
2022-07-26T04:09:05.493Z,17.91
2022-07-26T04:10:05.467Z,17.92
2022-07-26T04:11:05.481Z,17.91
2022-07-26T04:12:05.446Z,17.92
2022-07-26T04:13:05.483Z,17.91
2022-07-26T04:14:05.832Z,17.91
2022-07-26T04:15:05.437Z,17.88
2022-07-26T04:16:05.434Z,17.87
2022-07-26T04:17:05.480Z,17.85
2022-07-26T04:18:05.408Z,17.85
2022-07-26T04:19:05.407Z,17.85
2022-07-26T04:20:05.366Z,17.85
2022-07-26T04:21:05.368Z,17.85
2022-07-26T04:22:05.366Z,17.87
2022-07-26T04:23:05.345Z,17.85
2022-07-26T04:24:06.712Z,17.85
2022-07-26T04:25:05.319Z,17.85
2022-07-26T04:26:05.297Z,17.85
2022-07-26T04:27:05.268Z,17.84
2022-07-26T04:28:05.298Z,17.82
2022-07-26T04:29:05.268Z,17.79
2022-07-26T04:30:06.718Z,17.79
2022-07-26T04:31:05.292Z,17.76
2022-07-26T04:32:05.240Z,17.76
2022-07-26T04:33:05.209Z,17.73
2022-07-26T04:34:05.547Z,17.71
2022-07-26T04:35:05.223Z,17.70
2022-07-26T04:36:05.211Z,17.67
2022-07-26T04:37:05.191Z,17.64
2022-07-26T04:38:05.181Z,17.62
2022-07-26T04:39:05.150Z,17.64
2022-07-26T04:40:05.150Z,17.66
2022-07-26T04:41:05.174Z,17.71
2022-07-26T04:42:05.165Z,17.74
2022-07-26T04:43:05.093Z,17.74
2022-07-26T04:44:05.323Z,17.79
2022-07-26T04:45:08.356Z,17.84
2022-07-26T04:46:05.131Z,17.84
2022-07-26T04:47:05.102Z,17.84
2022-07-26T04:48:05.042Z,17.88
2022-07-26T04:49:05.131Z,17.91
2022-07-26T04:50:05.028Z,17.92
2022-07-26T04:51:05.005Z,17.95
2022-07-26T04:52:05.003Z,17.95
2022-07-26T04:53:05.011Z,17.95
2022-07-26T04:54:05.439Z,17.95
2022-07-26T04:55:04.984Z,18.00
2022-07-26T04:56:04.963Z,18.04
2022-07-26T04:57:04.959Z,18.12
2022-07-26T04:58:04.986Z,18.18
2022-07-26T04:59:04.905Z,18.22
2022-07-26T05:00:20.708Z,18.27
2022-07-26T05:01:10.467Z,18.28
2022-07-26T05:02:06.021Z,18.31
2022-07-26T05:03:04.932Z,18.36
2022-07-26T05:04:05.053Z,18.46
2022-07-26T05:05:04.837Z,18.64
2022-07-26T05:06:04.828Z,18.76
2022-07-26T05:07:04.807Z,18.82
2022-07-26T05:08:04.808Z,18.90
2022-07-26T05:09:04.803Z,18.94
2022-07-26T05:10:04.825Z,18.97
2022-07-26T05:11:04.777Z,18.98
2022-07-26T05:12:04.767Z,18.98
2022-07-26T05:13:04.738Z,19.01
2022-07-26T05:14:04.909Z,19.02
2022-07-26T05:15:04.756Z,19.02
2022-07-26T05:16:11.459Z,19.02
2022-07-26T05:17:08.834Z,19.06
2022-07-26T05:18:06.798Z,19.05
2022-07-26T05:19:04.677Z,19.06
2022-07-26T05:20:04.670Z,19.10
2022-07-26T05:21:04.709Z,19.10
2022-07-26T05:22:04.660Z,19.13
2022-07-26T05:23:04.645Z,19.18
2022-07-26T05:24:04.821Z,19.21
2022-07-26T05:25:04.706Z,19.24
2022-07-26T05:26:04.602Z,19.28
2022-07-26T05:27:04.649Z,19.29
2022-07-26T05:28:04.584Z,19.31
2022-07-26T05:29:04.565Z,19.32
2022-07-26T05:30:04.558Z,19.38
2022-07-26T05:31:04.579Z,19.40
2022-07-26T05:32:04.538Z,19.43
2022-07-26T05:33:04.553Z,19.48
2022-07-26T05:34:04.749Z,19.50
2022-07-26T05:35:04.497Z,19.53
2022-07-26T05:36:04.482Z,19.55
2022-07-26T05:37:04.480Z,19.58
2022-07-26T05:38:04.455Z,19.61
2022-07-26T05:39:04.484Z,19.63
2022-07-26T05:40:04.472Z,19.63
2022-07-26T05:41:04.426Z,19.65
2022-07-26T05:42:04.430Z,19.70
2022-07-26T05:43:04.427Z,19.75
2022-07-26T05:44:04.707Z,19.73
2022-07-26T05:45:04.416Z,19.76
2022-07-26T05:46:09.278Z,19.79
2022-07-26T05:47:05.386Z,19.83
2022-07-26T05:48:04.356Z,19.88
2022-07-26T05:49:04.434Z,19.94
2022-07-26T05:50:04.378Z,20.00
2022-07-26T05:51:04.351Z,20.03
2022-07-26T05:52:04.309Z,20.02
2022-07-26T05:53:04.288Z,20.09
2022-07-26T05:54:04.466Z,20.09
2022-07-26T05:55:04.280Z,20.10
2022-07-26T05:56:04.287Z,20.12
2022-07-26T05:57:04.268Z,20.10
2022-07-26T05:58:04.243Z,20.20
2022-07-26T05:59:04.229Z,20.30
2022-07-26T06:00:04.208Z,20.31
2022-07-26T06:01:04.230Z,20.31
2022-07-26T06:02:04.235Z,20.31
2022-07-26T06:03:04.196Z,20.38
2022-07-26T06:04:04.227Z,20.43
2022-07-26T06:05:04.249Z,20.50
2022-07-26T06:06:04.140Z,20.53
2022-07-26T06:07:04.159Z,20.58
2022-07-26T06:08:04.122Z,20.66
2022-07-26T06:09:04.163Z,20.53
2022-07-26T06:10:04.115Z,20.50
2022-07-26T06:11:04.133Z,20.47
2022-07-26T06:12:04.382Z,20.58
2022-07-26T06:13:04.094Z,20.59
2022-07-26T06:14:04.079Z,20.61
2022-07-26T06:15:04.053Z,20.64
2022-07-26T06:16:05.063Z,20.76
2022-07-26T06:17:04.109Z,20.74
2022-07-26T06:18:04.063Z,20.66
2022-07-26T06:19:04.003Z,20.65
2022-07-26T06:20:04.006Z,20.65
2022-07-26T06:21:04.015Z,20.59
2022-07-26T06:22:03.995Z,20.66
2022-07-26T06:23:03.987Z,20.80
2022-07-26T06:24:03.950Z,20.66
2022-07-26T06:25:03.935Z,20.64
2022-07-26T06:26:03.926Z,20.54
2022-07-26T06:27:05.257Z,20.66
2022-07-26T06:28:03.931Z,20.69
2022-07-26T06:29:03.916Z,20.71
2022-07-26T06:30:03.886Z,20.79
2022-07-26T06:31:03.866Z,20.84
2022-07-26T06:32:03.974Z,20.80
2022-07-26T06:33:03.850Z,20.74
2022-07-26T06:34:03.869Z,20.74
2022-07-26T06:35:03.831Z,20.87
2022-07-26T06:36:03.809Z,20.96
2022-07-26T06:37:03.801Z,21.02
2022-07-26T06:38:03.809Z,20.99
2022-07-26T06:39:03.772Z,20.99
2022-07-26T06:40:03.778Z,21.06
2022-07-26T06:41:03.740Z,21.16
2022-07-26T06:42:03.749Z,21.11
2022-07-26T06:43:04.664Z,21.13
2022-07-26T06:44:03.722Z,21.11
2022-07-26T06:45:03.742Z,21.08
2022-07-26T06:46:03.764Z,21.13
2022-07-26T06:47:03.856Z,21.09
2022-07-26T06:48:03.670Z,21.19
2022-07-26T06:49:03.704Z,21.23
2022-07-26T06:50:03.663Z,21.30
2022-07-26T06:51:03.687Z,21.27
2022-07-26T06:52:03.642Z,21.26
2022-07-26T06:53:03.627Z,21.27
2022-07-26T06:54:03.606Z,21.30
2022-07-26T06:55:03.616Z,21.27
2022-07-26T06:56:03.584Z,21.38
2022-07-26T06:57:03.596Z,21.29
2022-07-26T06:58:03.581Z,21.42
2022-07-26T06:59:09.076Z,21.54
2022-07-26T07:00:04.536Z,21.56
2022-07-26T07:01:03.626Z,21.54
2022-07-26T07:02:03.550Z,21.56
2022-07-26T07:03:03.537Z,21.59
2022-07-26T07:04:03.485Z,21.50
2022-07-26T07:05:03.514Z,21.50
2022-07-26T07:06:03.457Z,21.66
2022-07-26T07:07:05.894Z,21.78
2022-07-26T07:08:03.435Z,21.81
2022-07-26T07:09:03.447Z,21.79
2022-07-26T07:10:03.427Z,21.88
2022-07-26T07:11:03.450Z,21.79
2022-07-26T07:12:09.520Z,21.74
2022-07-26T07:13:04.387Z,21.79
2022-07-26T07:14:03.543Z,21.85
2022-07-26T07:15:03.396Z,21.94
2022-07-26T07:16:03.402Z,21.92
2022-07-26T07:17:03.333Z,21.98
2022-07-26T07:18:04.332Z,22.09
2022-07-26T07:19:03.321Z,22.10
2022-07-26T07:20:03.303Z,22.04
2022-07-26T07:21:03.317Z,21.99
2022-07-26T07:22:03.293Z,21.83
2022-07-26T07:23:03.270Z,21.81
2022-07-26T07:24:03.260Z,21.85
2022-07-26T07:25:03.284Z,22.04
2022-07-26T07:26:03.228Z,22.12
2022-07-26T07:27:04.458Z,22.10
2022-07-26T07:28:03.231Z,22.10
2022-07-26T07:29:04.110Z,22.14
2022-07-26T07:30:03.239Z,22.16
2022-07-26T07:31:03.865Z,22.13
2022-07-26T07:32:03.308Z,22.10
2022-07-26T07:33:03.553Z,22.27
2022-07-26T07:34:05.241Z,22.37
2022-07-26T07:35:03.123Z,22.50
2022-07-26T07:36:03.105Z,22.41
2022-07-26T07:37:03.140Z,22.32
2022-07-26T07:38:03.133Z,22.12
2022-07-26T07:39:06.301Z,21.98
2022-07-26T07:40:03.069Z,21.99
2022-07-26T07:41:03.117Z,22.16
2022-07-26T07:42:03.045Z,22.43
2022-07-26T07:43:03.118Z,22.38
2022-07-26T07:44:03.030Z,22.32
2022-07-26T07:45:03.008Z,22.22
2022-07-26T07:46:03.016Z,22.28
2022-07-26T07:47:03.077Z,22.38
2022-07-26T07:48:02.979Z,22.47
2022-07-26T07:49:03.054Z,22.50
2022-07-26T07:50:02.973Z,22.44
2022-07-26T07:51:02.948Z,22.44
2022-07-26T07:52:02.956Z,22.27
2022-07-26T07:53:02.921Z,22.17
2022-07-26T07:54:05.595Z,22.35
2022-07-26T07:55:37.078Z,22.62
2022-07-26T07:56:03.898Z,22.69
2022-07-26T07:57:02.898Z,22.71
2022-07-26T07:58:02.860Z,22.80
2022-07-26T07:59:02.850Z,23.07
2022-07-26T08:00:02.840Z,23.22
2022-07-26T08:01:02.883Z,23.42
2022-07-26T08:02:02.815Z,23.70
2022-07-26T08:03:02.802Z,23.67
2022-07-26T08:04:02.816Z,23.67
2022-07-26T08:05:11.486Z,23.97
2022-07-26T08:06:03.811Z,23.90
2022-07-26T08:07:02.770Z,23.80
2022-07-26T08:08:02.763Z,23.64
2022-07-26T08:09:03.772Z,23.58
2022-07-26T08:10:02.734Z,23.62
2022-07-26T08:11:02.714Z,23.40
2022-07-26T08:12:02.731Z,23.17
2022-07-26T08:13:02.694Z,23.04
2022-07-26T08:14:02.685Z,23.01
2022-07-26T08:15:07.399Z,22.90
2022-07-26T08:16:03.720Z,22.80
2022-07-26T08:17:02.723Z,22.72
2022-07-26T08:18:02.670Z,22.62
2022-07-26T08:19:02.626Z,22.68
2022-07-26T08:20:02.626Z,22.80
2022-07-26T08:21:02.607Z,23.02
2022-07-26T08:22:02.589Z,23.31
2022-07-26T08:23:02.583Z,23.40
2022-07-26T08:24:02.588Z,23.65
2022-07-26T08:25:02.572Z,23.87
2022-07-26T08:26:06.668Z,23.89
2022-07-26T08:27:02.528Z,23.71
2022-07-26T08:28:04.119Z,23.58
2022-07-26T08:29:02.700Z,23.95
2022-07-26T08:30:02.512Z,24.17
2022-07-26T08:31:02.618Z,24.20
2022-07-26T08:32:02.568Z,24.54
2022-07-26T08:33:02.481Z,24.87
2022-07-26T08:34:02.464Z,24.75
2022-07-26T08:35:17.686Z,24.07
2022-07-26T08:36:03.441Z,23.94
2022-07-26T08:37:16.660Z,23.60
2022-07-26T08:38:03.453Z,23.71
2022-07-26T08:39:02.410Z,23.77
2022-07-26T08:40:02.414Z,24.00
2022-07-26T08:41:02.412Z,24.07
2022-07-26T08:42:02.395Z,24.14
2022-07-26T08:43:02.364Z,24.53
2022-07-26T08:44:02.357Z,24.75
2022-07-26T08:45:02.410Z,24.71
2022-07-26T08:46:02.327Z,24.90
2022-07-26T08:47:02.497Z,24.52
2022-07-26T08:48:17.859Z,24.45
2022-07-26T08:49:03.332Z,24.38
2022-07-26T08:50:02.276Z,24.50
2022-07-26T08:51:02.294Z,24.87
2022-07-26T08:52:02.250Z,25.22
2022-07-26T08:53:02.277Z,25.42
2022-07-26T08:54:05.603Z,25.56
2022-07-26T08:55:02.236Z,25.34
2022-07-26T08:56:07.273Z,25.34
2022-07-26T08:57:03.200Z,25.38
2022-07-26T08:58:02.202Z,25.06
2022-07-26T08:59:02.243Z,24.47
2022-07-26T09:00:02.157Z,24.12
2022-07-26T09:01:02.200Z,23.94
2022-07-26T09:02:02.152Z,23.68
2022-07-26T09:03:02.130Z,23.40
2022-07-26T09:04:02.198Z,23.35
2022-07-26T09:05:02.140Z,23.47
2022-07-26T09:06:02.100Z,23.65
2022-07-26T09:07:02.098Z,23.85
2022-07-26T09:08:02.078Z,23.60
2022-07-26T09:09:02.094Z,23.62
2022-07-26T09:10:02.062Z,23.95
2022-07-26T09:11:02.063Z,24.20
2022-07-26T09:12:02.049Z,24.19
2022-07-26T09:13:02.032Z,24.14
2022-07-26T09:14:02.006Z,24.17
2022-07-26T09:15:01.987Z,24.16
2022-07-26T09:16:02.035Z,24.19
2022-07-26T09:17:02.016Z,24.47
2022-07-26T09:18:01.968Z,24.47
2022-07-26T09:19:01.963Z,24.56
2022-07-26T09:20:01.958Z,24.90
2022-07-26T09:21:01.923Z,24.94
2022-07-26T09:22:02.390Z,24.90
2022-07-26T09:23:01.955Z,24.76
2022-07-26T09:24:01.909Z,24.69
2022-07-26T09:25:01.898Z,24.44
2022-07-26T09:26:01.866Z,24.19
2022-07-26T09:27:01.845Z,24.00
2022-07-26T09:28:01.899Z,24.01
2022-07-26T09:29:01.845Z,24.13
2022-07-26T09:30:01.816Z,24.23
2022-07-26T09:31:01.871Z,24.16
2022-07-26T09:32:01.819Z,24.41
2022-07-26T09:33:02.169Z,24.54
2022-07-26T09:34:01.796Z,24.37
2022-07-26T09:35:01.788Z,23.90
2022-07-26T09:36:01.760Z,23.62
2022-07-26T09:37:01.741Z,23.58
2022-07-26T09:38:01.742Z,23.65
2022-07-26T09:39:01.974Z,23.64
2022-07-26T09:40:01.722Z,23.71
2022-07-26T09:41:01.699Z,24.12
2022-07-26T09:42:26.119Z,24.34
2022-07-26T09:43:02.680Z,24.26
2022-07-26T09:44:01.677Z,23.87
2022-07-26T09:45:01.706Z,23.95
2022-07-26T09:46:01.695Z,23.71
2022-07-26T09:47:01.781Z,23.64
2022-07-26T09:48:01.633Z,23.64
2022-07-26T09:49:11.011Z,23.57
2022-07-26T09:50:03.833Z,23.47
2022-07-26T09:51:01.592Z,23.57
2022-07-26T09:52:01.614Z,23.77
2022-07-26T09:53:01.594Z,23.97
2022-07-26T09:54:01.573Z,24.17
2022-07-26T09:55:01.549Z,24.44
2022-07-26T09:56:01.792Z,24.77
2022-07-26T09:57:01.562Z,24.97
2022-07-26T09:58:01.545Z,25.30
2022-07-26T09:59:01.492Z,25.20
2022-07-26T10:00:01.507Z,25.07
2022-07-26T10:01:02.641Z,24.75
2022-07-26T10:02:01.540Z,24.63
2022-07-26T10:03:01.527Z,24.50
2022-07-26T10:04:01.459Z,24.45
2022-07-26T10:05:01.465Z,24.83
2022-07-26T10:06:01.422Z,24.94
2022-07-26T10:07:01.408Z,24.73
2022-07-26T10:08:01.419Z,24.59
2022-07-26T10:09:01.381Z,24.44
2022-07-26T10:10:01.380Z,24.56
2022-07-26T10:11:01.363Z,24.60
2022-07-26T10:12:01.352Z,24.41
2022-07-26T10:13:01.358Z,24.32
2022-07-26T10:14:01.319Z,24.41
2022-07-26T10:15:01.325Z,24.38
2022-07-26T10:16:01.362Z,24.57
2022-07-26T10:17:01.292Z,24.77
2022-07-26T10:18:01.282Z,24.73
2022-07-26T10:19:01.281Z,24.60
2022-07-26T10:20:01.261Z,24.73
2022-07-26T10:21:01.244Z,24.60
2022-07-26T10:22:01.243Z,24.45
2022-07-26T10:23:01.265Z,24.52
2022-07-26T10:24:01.214Z,24.63
2022-07-26T10:25:01.224Z,24.82
2022-07-26T10:26:01.193Z,24.68
2022-07-26T10:27:01.183Z,24.39
2022-07-26T10:28:01.167Z,24.38
2022-07-26T10:29:01.166Z,24.47
2022-07-26T10:30:01.154Z,24.50
2022-07-26T10:31:01.232Z,24.39
2022-07-26T10:32:01.162Z,24.61
2022-07-26T10:33:01.131Z,24.94
2022-07-26T10:34:01.095Z,25.17
2022-07-26T10:35:01.087Z,25.39
2022-07-26T10:36:01.085Z,25.37
2022-07-26T10:37:01.098Z,25.68
2022-07-26T10:38:01.071Z,25.82
2022-07-26T10:39:01.077Z,25.46
2022-07-26T10:40:01.038Z,25.31
2022-07-26T10:41:01.066Z,25.28
2022-07-26T10:42:01.031Z,25.06
2022-07-26T10:43:17.106Z,25.15
2022-07-26T10:44:01.991Z,25.12
2022-07-26T10:45:00.967Z,25.12
2022-07-26T10:46:00.991Z,25.01
2022-07-26T10:47:01.011Z,25.07
2022-07-26T10:48:00.961Z,25.24
2022-07-26T10:49:01.028Z,25.15
2022-07-26T10:50:00.933Z,25.28
2022-07-26T10:51:05.844Z,25.44
2022-07-26T10:52:01.893Z,25.35
2022-07-26T10:53:00.913Z,25.30
2022-07-26T10:54:00.900Z,25.25
2022-07-26T10:55:00.880Z,25.37
2022-07-26T10:56:00.844Z,25.10
2022-07-26T10:57:00.842Z,25.09
2022-07-26T10:58:00.840Z,24.68
2022-07-26T10:59:00.847Z,24.83
2022-07-26T11:00:00.815Z,24.98
2022-07-26T11:01:00.825Z,25.13
2022-07-26T11:02:00.832Z,24.97
2022-07-26T11:03:00.853Z,24.88
2022-07-26T11:04:00.844Z,25.01
2022-07-26T11:05:00.776Z,25.15
2022-07-26T11:06:00.735Z,24.98
2022-07-26T11:07:00.725Z,24.82
2022-07-26T11:08:00.726Z,24.90
2022-07-26T11:09:00.708Z,24.95
2022-07-26T11:10:00.730Z,24.90
2022-07-26T11:11:00.687Z,24.49
2022-07-26T11:12:00.681Z,24.47
2022-07-26T11:13:00.671Z,24.68
2022-07-26T11:14:00.673Z,24.98
2022-07-26T11:15:00.639Z,25.17
2022-07-26T11:16:00.716Z,25.10
2022-07-26T11:17:00.619Z,24.95
2022-07-26T11:18:00.621Z,24.67
2022-07-26T11:19:00.587Z,24.59
2022-07-26T11:20:00.587Z,24.42
2022-07-26T11:21:00.598Z,24.49
2022-07-26T11:22:00.667Z,24.63
2022-07-26T11:23:00.549Z,24.71
2022-07-26T11:24:00.533Z,24.95
2022-07-26T11:25:00.545Z,25.09
2022-07-26T11:26:02.284Z,24.98
2022-07-26T11:27:00.613Z,25.20
2022-07-26T11:28:00.500Z,25.49
2022-07-26T11:29:00.481Z,25.71
2022-07-26T11:30:00.471Z,25.34
2022-07-26T11:31:00.586Z,25.09
2022-07-26T11:32:04.810Z,24.85
2022-07-26T11:33:01.467Z,24.91
2022-07-26T11:34:00.434Z,25.13
2022-07-26T11:35:00.440Z,25.09
2022-07-26T11:36:00.415Z,25.10
2022-07-26T11:37:00.406Z,25.06
2022-07-26T11:38:11.077Z,25.16
2022-07-26T11:39:01.364Z,25.32
2022-07-26T11:40:00.386Z,25.43
2022-07-26T11:41:00.347Z,25.38
2022-07-26T11:42:00.335Z,25.39
2022-07-26T11:43:00.331Z,25.24
2022-07-26T11:44:02.378Z,25.15
2022-07-26T11:45:00.320Z,24.98
2022-07-26T11:46:00.352Z,25.12
2022-07-26T11:47:00.299Z,25.19
2022-07-26T11:48:00.268Z,24.94
2022-07-26T11:49:00.376Z,24.85
2022-07-26T11:50:16.881Z,25.02
2022-07-26T11:51:01.246Z,25.25
2022-07-26T11:52:01.237Z,25.28
2022-07-26T11:53:00.250Z,25.49
2022-07-26T11:54:00.202Z,25.47
2022-07-26T11:55:00.252Z,25.32
2022-07-26T11:56:00.170Z,25.43
2022-07-26T11:57:00.174Z,25.16
2022-07-26T11:58:00.161Z,25.10
2022-07-26T11:59:00.164Z,25.16
2022-07-26T12:00:00.287Z,25.32
2022-07-26T12:01:00.169Z,25.71
2022-07-26T12:02:00.165Z,25.90
2022-07-26T12:03:00.139Z,25.87
2022-07-26T12:04:00.229Z,26.01
2022-07-26T12:05:00.223Z,26.18
2022-07-26T12:06:00.071Z,26.36
2022-07-26T12:07:00.111Z,26.65
2022-07-26T12:08:00.141Z,26.72
2022-07-26T12:09:00.075Z,26.84
2022-07-26T12:10:00.053Z,26.46
2022-07-26T12:11:00.025Z,26.15
2022-07-26T12:12:00.011Z,26.17
2022-07-26T12:13:00.143Z,26.44
2022-07-26T12:13:59.989Z,26.52
2022-07-26T12:14:59.988Z,26.46
2022-07-26T12:15:59.984Z,26.11
2022-07-26T12:16:59.965Z,25.77
2022-07-26T12:17:59.951Z,26.12
2022-07-26T12:18:59.996Z,26.46
2022-07-26T12:19:59.911Z,26.61
2022-07-26T12:21:04.414Z,26.61
2022-07-26T12:22:00.897Z,26.32
2022-07-26T12:22:59.914Z,26.32
2022-07-26T12:23:59.880Z,26.37
2022-07-26T12:24:59.900Z,26.39
2022-07-26T12:25:59.844Z,26.35
2022-07-26T12:26:59.853Z,26.25
2022-07-26T12:27:59.833Z,26.31
2022-07-26T12:28:59.856Z,26.49
2022-07-26T12:29:59.801Z,26.43
2022-07-26T12:30:59.865Z,26.31
2022-07-26T12:31:59.774Z,26.37
2022-07-26T12:32:59.783Z,26.52
2022-07-26T12:33:59.751Z,26.83
2022-07-26T12:34:59.745Z,26.58
2022-07-26T12:35:59.760Z,26.02
2022-07-26T12:36:59.738Z,26.02
2022-07-26T12:37:59.703Z,26.04
2022-07-26T12:39:00.091Z,25.98
2022-07-26T12:39:59.718Z,26.11
2022-07-26T12:40:59.673Z,26.12
2022-07-26T12:41:59.714Z,26.29
2022-07-26T12:43:02.259Z,26.58
2022-07-26T12:43:59.643Z,26.83
2022-07-26T12:44:59.628Z,26.98
2022-07-26T12:45:59.658Z,26.98
2022-07-26T12:46:59.606Z,26.94
2022-07-26T12:47:59.629Z,26.86
2022-07-26T12:49:00.699Z,27.05
2022-07-26T12:49:59.569Z,27.24
2022-07-26T12:50:59.557Z,27.26
2022-07-26T12:51:59.553Z,26.68